createdAt,value
2023-06-03T00:01:06.175Z,9.98
2023-06-03T00:03:54.153Z,9.85
2023-06-03T00:06:41.921Z,13.13
2023-06-03T00:09:29.519Z,11.13
2023-06-03T00:12:17.390Z,8.60
2023-06-03T00:15:05.439Z,10.43
2023-06-03T00:17:53.022Z,9.40
2023-06-03T00:20:40.774Z,8.57
2023-06-03T00:23:29.156Z,9.32
2023-06-03T00:26:17.396Z,9.80
2023-06-03T00:29:05.003Z,9.63
2023-06-03T00:31:52.915Z,10.02
2023-06-03T00:34:40.701Z,15.30
2023-06-03T00:37:28.722Z,10.85
2023-06-03T00:40:16.562Z,10.48
2023-06-03T00:43:04.284Z,9.50
2023-06-03T00:45:51.902Z,12.63
2023-06-03T00:48:40.576Z,11.90
2023-06-03T00:51:28.722Z,14.95
2023-06-03T00:54:17.424Z,12.27
2023-06-03T00:57:06.948Z,16.23
2023-06-03T00:59:54.710Z,15.27
2023-06-03T01:02:45.923Z,10.13
2023-06-03T01:05:33.741Z,11.60
2023-06-03T01:08:28.379Z,7.85
2023-06-03T01:11:31.647Z,12.35
2023-06-03T01:15:01.863Z,11.68
2023-06-03T01:17:52.421Z,12.95
2023-06-03T01:20:42.105Z,11.43
2023-06-03T01:23:35.200Z,12.10
2023-06-03T01:26:23.352Z,12.18
2023-06-03T01:29:11.230Z,12.95
2023-06-03T01:32:01.367Z,10.73
2023-06-03T01:34:50.802Z,10.25
2023-06-03T01:37:39.065Z,10.73
2023-06-03T01:40:27.630Z,11.75
2023-06-03T01:43:15.970Z,11.10
2023-06-03T01:46:03.692Z,10.70
2023-06-03T01:48:51.737Z,12.57
2023-06-03T01:51:39.453Z,10.35
2023-06-03T01:54:31.048Z,15.55
2023-06-03T01:57:19.397Z,8.57
2023-06-03T02:00:07.952Z,9.13
2023-06-03T02:02:55.624Z,11.40
2023-06-03T02:05:43.259Z,12.15
2023-06-03T02:08:31.639Z,15.52
2023-06-03T02:11:19.218Z,13.32
2023-06-03T02:14:07.342Z,10.40
2023-06-03T02:16:58.679Z,11.13
2023-06-03T02:19:46.639Z,12.10
2023-06-03T02:22:34.500Z,9.90
2023-06-03T02:25:22.030Z,10.98
2023-06-03T02:28:09.774Z,11.50
2023-06-03T02:30:57.825Z,16.30
2023-06-03T02:33:45.552Z,9.63
2023-06-03T02:36:33.431Z,10.52
2023-06-03T02:39:21.547Z,13.98
2023-06-03T02:42:09.789Z,14.63
2023-06-03T02:44:57.348Z,13.68
2023-06-03T02:47:44.889Z,12.60
2023-06-03T02:50:32.578Z,12.20
2023-06-03T02:53:20.413Z,15.52
2023-06-03T02:56:07.997Z,12.02
2023-06-03T02:58:55.984Z,10.65
2023-06-03T03:01:44.384Z,11.27
2023-06-03T03:04:35.077Z,10.88
2023-06-03T03:07:28.430Z,13.15
2023-06-03T03:10:16.956Z,15.07
2023-06-03T03:13:04.645Z,10.75
2023-06-03T03:15:52.350Z,8.27
2023-06-03T03:18:42.964Z,12.07
2023-06-03T03:21:30.722Z,9.82
2023-06-03T03:24:18.667Z,11.63
2023-06-03T03:27:06.725Z,11.40
2023-06-03T03:29:56.490Z,12.50
2023-06-03T03:32:44.377Z,10.32
2023-06-03T03:35:32.225Z,9.35
2023-06-03T03:38:20.796Z,9.82
2023-06-03T03:41:08.308Z,9.68
2023-06-03T03:43:55.914Z,8.88
2023-06-03T03:46:56.248Z,8.75
2023-06-03T03:49:43.852Z,9.60
2023-06-03T03:52:31.774Z,8.55
2023-06-03T03:55:21.711Z,12.50
2023-06-03T03:58:18.575Z,7.68
2023-06-03T04:01:17.656Z,12.77
2023-06-03T04:04:07.187Z,10.80
2023-06-03T04:06:56.092Z,10.07
2023-06-03T04:09:44.807Z,6.20
2023-06-03T04:12:37.691Z,7.25
2023-06-03T04:15:31.645Z,10.93
2023-06-03T04:18:21.976Z,10.50
2023-06-03T04:21:15.658Z,6.90
2023-06-03T04:24:06.478Z,7.72
2023-06-03T04:26:54.890Z,10.38
2023-06-03T04:29:42.643Z,8.07
2023-06-03T04:32:30.613Z,6.43
2023-06-03T04:35:18.360Z,5.88
2023-06-03T04:38:06.304Z,8.68
2023-06-03T04:40:54.546Z,7.13
2023-06-03T04:43:45.064Z,8.98
2023-06-03T04:46:33.457Z,7.82
2023-06-03T04:49:21.307Z,5.13
2023-06-03T04:52:11.224Z,7.55
2023-06-03T04:54:58.988Z,6.28
2023-06-03T04:57:48.898Z,7.22
2023-06-03T05:00:38.173Z,5.82
2023-06-03T05:03:27.468Z,5.25
2023-06-03T05:06:15.119Z,8.75
2023-06-03T05:09:02.732Z,7.85
2023-06-03T05:11:50.468Z,7.18
2023-06-03T05:14:38.003Z,7.50
2023-06-03T05:17:25.608Z,8.35
2023-06-03T05:20:13.487Z,6.95
2023-06-03T05:23:01.349Z,5.38
2023-06-03T05:25:49.048Z,8.38
2023-06-03T05:28:36.647Z,6.13
2023-06-03T05:31:24.672Z,7.97
2023-06-03T05:34:12.272Z,7.85
2023-06-03T05:36:59.792Z,3.40
2023-06-03T05:39:47.583Z,5.05
2023-06-03T05:42:35.168Z,5.35
2023-06-03T05:45:22.914Z,5.85
2023-06-03T05:48:11.336Z,3.35
2023-06-03T05:50:59.243Z,7.75
2023-06-03T05:53:47.303Z,6.47
2023-06-03T05:56:35.040Z,4.63
2023-06-03T05:59:22.784Z,5.85
2023-06-03T06:02:13.199Z,4.05
2023-06-03T06:05:01.155Z,5.82
2023-06-03T06:07:49.258Z,6.80
2023-06-03T06:10:37.092Z,5.70
2023-06-03T06:13:27.351Z,4.85
2023-06-03T06:16:15.933Z,4.40
2023-06-03T06:19:03.846Z,2.80
2023-06-03T06:21:53.064Z,6.28
2023-06-03T06:24:42.384Z,3.10
2023-06-03T06:27:34.580Z,4.72
2023-06-03T06:30:23.740Z,3.97
2023-06-03T06:33:18.533Z,3.63
2023-06-03T06:36:27.499Z,4.28
2023-06-03T06:40:05.959Z,3.90
2023-06-03T06:42:55.273Z,4.97
2023-06-03T06:45:47.154Z,5.90
2023-06-03T06:48:35.983Z,6.40
2023-06-03T06:51:26.003Z,2.88
2023-06-03T06:54:16.460Z,2.97
2023-06-03T06:57:06.932Z,7.78
2023-06-03T07:00:01.054Z,6.00
2023-06-03T07:05:39.086Z,5.15
2023-06-03T07:08:29.696Z,3.10
2023-06-03T07:11:18.766Z,4.22
2023-06-03T07:14:08.939Z,5.10
2023-06-03T07:17:01.008Z,4.75
2023-06-03T07:19:50.655Z,2.80
2023-06-03T07:22:41.001Z,4.70
2023-06-03T07:25:48.892Z,4.93
2023-06-03T07:28:42.418Z,3.30
2023-06-03T07:31:37.080Z,4.80
2023-06-03T07:34:28.372Z,6.05
2023-06-03T07:37:22.236Z,3.30
2023-06-03T07:40:17.866Z,5.07
2023-06-03T07:43:14.479Z,5.82
2023-06-03T07:46:10.576Z,2.33
2023-06-03T07:49:03.167Z,4.75
2023-06-03T07:51:56.043Z,7.05
2023-06-03T07:54:46.576Z,3.85
2023-06-03T07:57:46.779Z,6.63
2023-06-03T08:00:36.322Z,7.47
2023-06-03T08:03:30.544Z,8.90
2023-06-03T08:06:21.985Z,4.60
2023-06-03T08:09:11.018Z,2.88
2023-06-03T08:12:02.008Z,3.85
2023-06-03T08:14:52.246Z,4.05
2023-06-03T08:17:45.154Z,3.63
2023-06-03T08:20:40.470Z,4.53
2023-06-03T08:23:34.167Z,4.32
2023-06-03T08:26:24.653Z,5.75
2023-06-03T08:29:16.848Z,4.97
2023-06-03T08:32:06.465Z,6.13
2023-06-03T08:34:56.497Z,4.25
2023-06-03T08:37:46.905Z,5.55
2023-06-03T08:40:44.010Z,7.30
2023-06-03T08:44:01.569Z,5.85
2023-06-03T08:47:13.584Z,3.30
2023-06-03T08:50:09.407Z,4.80
2023-06-03T08:53:01.677Z,5.15
2023-06-03T08:55:53.958Z,2.55
2023-06-03T08:59:01.898Z,3.97
2023-06-03T09:01:57.175Z,10.13
2023-06-03T09:04:50.992Z,5.75
2023-06-03T09:07:42.603Z,5.10
2023-06-03T09:10:33.881Z,5.15
2023-06-03T09:13:24.604Z,6.20
2023-06-03T09:16:17.884Z,6.47
2023-06-03T09:19:10.760Z,5.43
2023-06-03T09:22:02.281Z,9.38
2023-06-03T09:24:52.703Z,5.38
2023-06-03T09:27:42.867Z,4.53
2023-06-03T09:30:36.813Z,4.53
2023-06-03T09:33:27.135Z,6.80
2023-06-03T09:36:20.390Z,4.25
2023-06-03T09:39:17.766Z,7.45
2023-06-03T09:42:09.320Z,7.03
2023-06-03T09:44:59.186Z,4.75
2023-06-03T09:47:49.264Z,4.60
2023-06-03T09:50:50.831Z,4.88
2023-06-03T09:53:42.824Z,6.43
2023-06-03T09:56:33.355Z,5.90
2023-06-03T09:59:26.583Z,5.10
2023-06-03T10:02:17.078Z,8.73
2023-06-03T10:05:05.639Z,5.88
2023-06-03T10:07:59.243Z,5.43
2023-06-03T10:11:03.108Z,8.05
2023-06-03T10:14:07.647Z,5.40
2023-06-03T10:17:08.197Z,7.95
2023-06-03T10:19:58.396Z,5.95
2023-06-03T10:22:48.576Z,5.25
2023-06-03T10:25:53.905Z,7.10
2023-06-03T10:28:47.536Z,8.05
2023-06-03T10:31:42.364Z,5.25
2023-06-03T10:34:36.176Z,7.40
2023-06-03T10:40:17.095Z,3.90
2023-06-03T10:43:06.786Z,5.50
2023-06-03T10:45:59.698Z,5.78
2023-06-03T10:48:49.875Z,5.37
2023-06-03T10:52:08.448Z,4.03
2023-06-03T10:55:14.170Z,4.13
2023-06-03T10:58:21.627Z,8.75
2023-06-03T11:01:13.162Z,3.90
2023-06-03T11:04:09.630Z,5.88
2023-06-03T11:06:59.949Z,5.18
2023-06-03T11:09:50.125Z,7.80
2023-06-03T11:12:51.983Z,5.50
2023-06-03T11:16:02.090Z,8.13
2023-06-03T11:19:32.273Z,6.25
2023-06-03T11:22:31.822Z,4.13
2023-06-03T11:25:28.084Z,6.70
2023-06-03T11:28:36.235Z,4.82
2023-06-03T11:31:28.797Z,8.25
2023-06-03T11:34:23.555Z,3.78
2023-06-03T11:37:18.996Z,4.63
2023-06-03T11:40:16.698Z,4.90
2023-06-03T11:43:07.762Z,5.53
2023-06-03T11:46:04.838Z,4.28
2023-06-03T11:48:55.739Z,7.20
2023-06-03T11:51:50.975Z,3.03
2023-06-03T11:54:47.234Z,5.15
2023-06-03T11:57:38.515Z,6.55
2023-06-03T12:00:30.610Z,4.57
2023-06-03T12:03:21.966Z,3.70
2023-06-03T12:06:12.951Z,4.47
2023-06-03T12:09:03.821Z,3.85
2023-06-03T12:11:58.026Z,4.45
2023-06-03T12:14:48.348Z,11.00
2023-06-03T12:17:38.585Z,3.63
2023-06-03T12:20:31.839Z,6.13
2023-06-03T12:23:24.331Z,3.38
2023-06-03T12:26:15.042Z,6.07
2023-06-03T12:29:07.944Z,3.85
2023-06-03T12:32:02.794Z,4.28
2023-06-03T12:34:53.974Z,5.32
2023-06-03T12:37:45.729Z,7.82
2023-06-03T12:40:36.335Z,3.75
2023-06-03T12:43:26.879Z,4.03
2023-06-03T12:46:20.500Z,5.97
2023-06-03T12:49:16.741Z,5.38
2023-06-03T12:52:20.976Z,4.05
2023-06-03T12:55:18.485Z,4.90
2023-06-03T12:58:18.654Z,4.00
2023-06-03T13:01:10.219Z,4.30
2023-06-03T13:04:00.674Z,5.90
2023-06-03T13:06:52.881Z,4.90
2023-06-03T13:09:46.520Z,4.28
2023-06-03T13:15:28.021Z,3.75
2023-06-03T13:18:23.347Z,7.43
2023-06-03T13:21:13.366Z,4.03
2023-06-03T13:24:04.589Z,9.15
2023-06-03T13:26:54.955Z,14.43
2023-06-03T13:29:47.534Z,3.97
2023-06-03T13:32:38.761Z,5.47
2023-06-03T13:35:30.868Z,5.57
2023-06-03T13:38:19.907Z,7.25
2023-06-03T13:41:11.837Z,6.97
2023-06-03T13:44:03.945Z,6.82
2023-06-03T13:46:55.082Z,4.68
2023-06-03T13:49:50.090Z,6.00
2023-06-03T13:52:39.322Z,5.40
2023-06-03T13:55:29.017Z,6.93
2023-06-03T13:58:21.617Z,6.20
2023-06-03T14:01:13.224Z,4.65
2023-06-03T14:04:03.525Z,3.42
2023-06-03T14:06:56.696Z,5.20
2023-06-03T14:09:46.944Z,3.92
2023-06-03T14:12:37.841Z,4.00
2023-06-03T14:15:28.183Z,6.75
2023-06-03T14:18:18.395Z,4.95
2023-06-03T14:21:09.440Z,8.00
2023-06-03T14:23:59.572Z,7.50
2023-06-03T14:26:48.824Z,6.85
2023-06-03T14:29:39.136Z,3.00
2023-06-03T14:32:28.749Z,5.45
2023-06-03T14:35:19.259Z,25.05
2023-06-03T14:38:08.491Z,18.60
2023-06-03T14:41:00.762Z,7.18
2023-06-03T14:43:52.784Z,5.00
2023-06-03T14:46:42.644Z,8.70
2023-06-03T14:49:35.072Z,8.68
2023-06-03T14:52:26.521Z,3.70
2023-06-03T14:55:15.651Z,6.18
2023-06-03T14:58:06.263Z,5.38
2023-06-03T15:00:56.954Z,5.15
2023-06-03T15:03:47.574Z,7.13
2023-06-03T15:06:37.754Z,8.13
2023-06-03T15:09:28.180Z,6.63
2023-06-03T15:12:21.749Z,4.00
2023-06-03T15:15:13.627Z,11.45
2023-06-03T15:18:07.460Z,7.13
2023-06-03T15:20:59.080Z,4.55
2023-06-03T15:23:49.504Z,6.10
2023-06-03T15:26:39.963Z,3.83
2023-06-03T15:29:32.234Z,3.97
2023-06-03T15:32:23.079Z,6.55
2023-06-03T15:35:17.550Z,3.58
2023-06-03T15:38:08.101Z,3.70
2023-06-03T15:40:58.726Z,3.35
2023-06-03T15:43:54.925Z,7.57
2023-06-03T15:46:45.579Z,3.90
2023-06-03T15:49:35.725Z,5.22
2023-06-03T15:52:26.514Z,6.93
2023-06-03T15:55:19.520Z,4.47
2023-06-03T15:58:11.610Z,7.47
2023-06-03T16:01:02.346Z,6.50
2023-06-03T16:03:52.933Z,4.15
2023-06-03T16:06:44.159Z,6.68
2023-06-03T16:09:36.699Z,3.83
2023-06-03T16:12:27.616Z,6.38
2023-06-03T16:15:18.149Z,3.60
2023-06-03T16:18:08.439Z,5.97
2023-06-03T16:20:58.756Z,7.13
2023-06-03T16:23:50.091Z,5.95
2023-06-03T16:26:43.949Z,6.28
2023-06-03T16:29:35.066Z,3.88
2023-06-03T16:32:25.081Z,2.85
2023-06-03T16:35:15.110Z,3.92
2023-06-03T16:38:04.047Z,2.70
2023-06-03T16:40:57.621Z,4.97
2023-06-03T16:43:47.301Z,3.15
2023-06-03T16:46:37.551Z,5.18
2023-06-03T16:49:29.425Z,5.72
2023-06-03T16:52:20.096Z,3.50
2023-06-03T16:55:09.857Z,7.18
2023-06-03T16:58:01.535Z,4.30
2023-06-03T17:00:52.045Z,6.63
2023-06-03T17:03:44.357Z,6.00
2023-06-03T17:06:34.550Z,17.85
2023-06-03T17:09:24.541Z,7.18
2023-06-03T17:12:14.601Z,5.53
2023-06-03T17:15:02.585Z,6.20
2023-06-03T17:17:53.196Z,7.13
2023-06-03T17:20:42.881Z,11.93
2023-06-03T17:23:32.933Z,3.75
2023-06-03T17:26:25.354Z,4.90
2023-06-03T17:29:15.366Z,8.23
2023-06-03T17:32:04.684Z,5.03
2023-06-03T17:34:54.756Z,5.63
2023-06-03T17:37:45.054Z,3.10
2023-06-03T17:40:34.020Z,6.20
2023-06-03T17:43:24.210Z,11.18
2023-06-03T17:46:14.562Z,4.22
2023-06-03T17:49:04.550Z,4.35
2023-06-03T17:51:55.834Z,6.95
2023-06-03T17:54:45.816Z,3.95
2023-06-03T17:57:45.995Z,5.15
2023-06-03T18:00:36.203Z,3.75
2023-06-03T18:03:26.824Z,8.40
2023-06-03T18:06:17.007Z,3.60
2023-06-03T18:09:07.161Z,4.80
2023-06-03T18:11:57.390Z,3.78
2023-06-03T18:14:47.707Z,8.13
2023-06-03T18:17:38.721Z,4.22
2023-06-03T18:20:26.779Z,5.05
2023-06-03T18:23:16.775Z,3.25
2023-06-03T18:26:13.168Z,5.95
2023-06-03T18:29:10.527Z,5.45
2023-06-03T18:32:00.633Z,3.00
2023-06-03T18:34:49.507Z,5.18
2023-06-03T18:37:43.659Z,4.40
2023-06-03T18:40:31.541Z,2.70
2023-06-03T18:43:19.618Z,6.68
2023-06-03T18:46:07.810Z,4.65
2023-06-03T18:48:55.977Z,6.30
2023-06-03T18:51:43.883Z,6.10
2023-06-03T18:54:31.584Z,2.83
2023-06-03T18:57:19.197Z,5.10
2023-06-03T19:00:07.377Z,3.28
2023-06-03T19:02:56.276Z,6.93
2023-06-03T19:05:44.042Z,2.35
2023-06-03T19:08:31.730Z,3.95
2023-06-03T19:11:20.216Z,3.95
2023-06-03T19:14:11.005Z,3.28
2023-06-03T19:16:59.446Z,3.35
2023-06-03T19:19:47.148Z,2.67
2023-06-03T19:22:35.563Z,6.20
2023-06-03T19:25:23.456Z,6.97
2023-06-03T19:28:11.154Z,3.95
2023-06-03T19:30:59.056Z,2.47
2023-06-03T19:33:48.540Z,3.95
2023-06-03T19:36:36.457Z,6.00
2023-06-03T19:39:24.119Z,4.22
2023-06-03T19:42:11.688Z,2.80
2023-06-03T19:44:59.214Z,4.40
2023-06-03T19:47:46.850Z,4.13
2023-06-03T19:50:34.553Z,7.38
2023-06-03T19:53:22.291Z,3.03
2023-06-03T19:56:12.284Z,4.07
2023-06-03T19:59:02.900Z,3.63
2023-06-03T20:01:50.839Z,5.13
2023-06-03T20:04:38.676Z,4.70
2023-06-03T20:07:26.467Z,6.40
2023-06-03T20:10:14.280Z,4.32
2023-06-03T20:13:02.350Z,4.22
2023-06-03T20:15:55.522Z,6.70
2023-06-03T20:18:43.535Z,2.85
2023-06-03T20:21:36.089Z,6.10
2023-06-03T20:24:24.262Z,4.50
2023-06-03T20:27:14.559Z,3.05
2023-06-03T20:30:03.696Z,2.08
2023-06-03T20:32:51.680Z,2.83
2023-06-03T20:35:40.636Z,5.20
2023-06-03T20:38:33.964Z,3.17
2023-06-03T20:41:22.210Z,4.27
2023-06-03T20:44:12.424Z,6.13
2023-06-03T20:47:01.266Z,8.55
2023-06-03T20:49:49.015Z,5.05
2023-06-03T20:52:38.793Z,10.73
2023-06-03T20:55:27.428Z,5.45
2023-06-03T20:58:15.178Z,4.85
2023-06-03T21:01:03.274Z,4.22
2023-06-03T21:03:54.172Z,3.35
2023-06-03T21:06:45.152Z,3.90
2023-06-03T21:09:32.808Z,5.32
2023-06-03T21:12:23.055Z,6.82
2023-06-03T21:15:14.274Z,2.22
2023-06-03T21:18:03.917Z,4.93
2023-06-03T21:20:57.934Z,6.22
2023-06-03T21:23:45.716Z,4.00
2023-06-03T21:26:33.620Z,5.00
2023-06-03T21:29:21.695Z,4.03
2023-06-03T21:32:09.692Z,3.08
2023-06-03T21:34:57.306Z,2.85
2023-06-03T21:37:45.182Z,2.58
2023-06-03T21:40:36.106Z,4.43
2023-06-03T21:43:23.933Z,8.65
2023-06-03T21:46:11.662Z,3.60
2023-06-03T21:49:00.167Z,3.88
2023-06-03T21:51:48.175Z,3.88
2023-06-03T21:54:41.230Z,5.03
2023-06-03T21:57:29.079Z,3.08
2023-06-03T22:00:23.122Z,6.35
2023-06-03T22:05:58.777Z,4.63
2023-06-03T22:08:46.549Z,5.30
2023-06-03T22:11:34.424Z,4.85
2023-06-03T22:14:22.163Z,5.10
2023-06-03T22:17:10.086Z,4.47
2023-06-03T22:19:57.867Z,2.50
2023-06-03T22:22:54.622Z,3.80
2023-06-03T22:25:50.705Z,2.72
2023-06-03T22:28:38.464Z,3.55
2023-06-03T22:31:26.708Z,5.75
2023-06-03T22:34:14.526Z,5.75
2023-06-03T22:37:02.396Z,5.25
2023-06-03T22:39:51.172Z,3.38
2023-06-03T22:42:38.845Z,6.63
2023-06-03T22:45:26.602Z,3.55
2023-06-03T22:48:16.861Z,7.38
2023-06-03T22:51:07.298Z,4.60
2023-06-03T22:53:55.271Z,4.32
2023-06-03T22:56:43.210Z,4.80
2023-06-03T22:59:30.962Z,3.60
2023-06-03T23:02:18.704Z,3.55
2023-06-03T23:05:07.116Z,2.95
2023-06-03T23:07:54.935Z,2.70
2023-06-03T23:10:42.661Z,3.20
2023-06-03T23:13:30.524Z,3.53
2023-06-03T23:16:18.218Z,3.42
2023-06-03T23:19:05.869Z,5.95
2023-06-03T23:21:54.823Z,2.17
2023-06-03T23:24:42.651Z,4.47
2023-06-03T23:27:30.564Z,3.25
2023-06-03T23:30:18.442Z,4.35
2023-06-03T23:33:06.830Z,5.15
2023-06-03T23:35:54.973Z,5.13
2023-06-03T23:38:42.820Z,6.25
2023-06-03T23:41:30.532Z,5.35
2023-06-03T23:44:18.286Z,3.83
2023-06-03T23:47:06.767Z,5.43
2023-06-03T23:49:55.636Z,4.20
2023-06-03T23:52:43.304Z,6.75
2023-06-03T23:55:30.952Z,4.97
2023-06-03T23:58:18.982Z,3.65
